sensor_id;sensor_type;location;lat;lon;timestamp;P1;durP1;ratioP1;P2;durP2;ratioP2
10890;SDS011;5498;50.928;11.598;2023-03-14T00:00:00;697.73;;;498.83;;
10890;SDS011;5498;50.928;11.598;2023-03-14T00:03:05;696.63;;;492.47;;
10890;SDS011;5498;50.928;11.598;2023-03-14T00:06:08;690.90;;;475.83;;
10890;SDS011;5498;50.928;11.598;2023-03-14T00:09:12;695.10;;;492.60;;
10890;SDS011;5498;50.928;11.598;2023-03-14T00:12:15;697.83;;;490.73;;
10890;SDS011;5498;50.928;11.598;2023-03-14T00:15:17;695.40;;;482.90;;
10890;SDS011;5498;50.928;11.598;2023-03-14T00:18:18;692.33;;;477.33;;
10890;SDS011;5498;50.928;11.598;2023-03-14T00:21:20;693.70;;;477.90;;
10890;SDS011;5498;50.928;11.598;2023-03-14T00:24:22;698.27;;;482.23;;
10890;SDS011;5498;50.928;11.598;2023-03-14T00:27:25;690.13;;;473.30;;
10890;SDS011;5498;50.928;11.598;2023-03-14T00:30:27;695.23;;;476.63;;
10890;SDS011;5498;50.928;11.598;2023-03-14T00:33:29;692.83;;;482.40;;
10890;SDS011;5498;50.928;11.598;2023-03-14T00:36:31;697.73;;;493.17;;
10890;SDS011;5498;50.928;11.598;2023-03-14T00:39:33;694.37;;;485.10;;
10890;SDS011;5498;50.928;11.598;2023-03-14T00:42:36;697.27;;;494.97;;
10890;SDS011;5498;50.928;11.598;2023-03-14T00:45:38;698.57;;;499.93;;
10890;SDS011;5498;50.928;11.598;2023-03-14T00:48:40;699.10;;;504.33;;
10890;SDS011;5498;50.928;11.598;2023-03-14T00:51:42;699.67;;;505.33;;
10890;SDS011;5498;50.928;11.598;2023-03-14T00:54:44;696.40;;;501.03;;
10890;SDS011;5498;50.928;11.598;2023-03-14T00:57:47;696.53;;;490.37;;
10890;SDS011;5498;50.928;11.598;2023-03-14T01:00:49;695.70;;;489.40;;
10890;SDS011;5498;50.928;11.598;2023-03-14T01:03:51;694.43;;;480.57;;
10890;SDS011;5498;50.928;11.598;2023-03-14T01:06:53;692.47;;;481.13;;
10890;SDS011;5498;50.928;11.598;2023-03-14T01:09:55;694.07;;;488.73;;
10890;SDS011;5498;50.928;11.598;2023-03-14T01:12:58;698.27;;;502.20;;
10890;SDS011;5498;50.928;11.598;2023-03-14T01:16:01;699.97;;;506.07;;
10890;SDS011;5498;50.928;11.598;2023-03-14T01:19:05;697.00;;;500.33;;
10890;SDS011;5498;50.928;11.598;2023-03-14T01:22:07;700.83;;;513.10;;
10890;SDS011;5498;50.928;11.598;2023-03-14T01:25:09;702.57;;;521.13;;
10890;SDS011;5498;50.928;11.598;2023-03-14T01:28:15;702.77;;;520.53;;
10890;SDS011;5498;50.928;11.598;2023-03-14T01:31:17;703.13;;;524.63;;
10890;SDS011;5498;50.928;11.598;2023-03-14T01:34:19;706.60;;;533.03;;
10890;SDS011;5498;50.928;11.598;2023-03-14T01:37:21;703.37;;;536.20;;
10890;SDS011;5498;50.928;11.598;2023-03-14T01:40:23;705.60;;;533.27;;
10890;SDS011;5498;50.928;11.598;2023-03-14T01:43:26;706.03;;;534.10;;
10890;SDS011;5498;50.928;11.598;2023-03-14T01:46:35;700.17;;;523.53;;
10890;SDS011;5498;50.928;11.598;2023-03-14T01:49:40;705.50;;;530.53;;
10890;SDS011;5498;50.928;11.598;2023-03-14T01:52:42;707.73;;;539.67;;
10890;SDS011;5498;50.928;11.598;2023-03-14T01:55:48;712.53;;;548.80;;
10890;SDS011;5498;50.928;11.598;2023-03-14T01:58:55;708.50;;;548.40;;
10890;SDS011;5498;50.928;11.598;2023-03-14T02:01:56;707.93;;;548.50;;
10890;SDS011;5498;50.928;11.598;2023-03-14T02:05:14;702.83;;;532.50;;
10890;SDS011;5498;50.928;11.598;2023-03-14T02:08:19;704.70;;;535.10;;
10890;SDS011;5498;50.928;11.598;2023-03-14T02:11:26;703.73;;;531.10;;
10890;SDS011;5498;50.928;11.598;2023-03-14T02:14:32;709.70;;;553.40;;
10890;SDS011;5498;50.928;11.598;2023-03-14T02:17:36;708.73;;;538.10;;
10890;SDS011;5498;50.928;11.598;2023-03-14T02:20:40;702.77;;;527.43;;
10890;SDS011;5498;50.928;11.598;2023-03-14T02:23:51;708.27;;;535.73;;
10890;SDS011;5498;50.928;11.598;2023-03-14T02:27:07;708.67;;;538.37;;
10890;SDS011;5498;50.928;11.598;2023-03-14T02:30:15;712.70;;;546.90;;
10890;SDS011;5498;50.928;11.598;2023-03-14T02:33:19;710.87;;;554.53;;
10890;SDS011;5498;50.928;11.598;2023-03-14T02:36:22;713.87;;;559.27;;
10890;SDS011;5498;50.928;11.598;2023-03-14T02:39:26;713.93;;;565.57;;
10890;SDS011;5498;50.928;11.598;2023-03-14T02:42:35;710.87;;;551.43;;
10890;SDS011;5498;50.928;11.598;2023-03-14T02:45:38;712.67;;;566.47;;
10890;SDS011;5498;50.928;11.598;2023-03-14T02:48:43;705.10;;;548.30;;
10890;SDS011;5498;50.928;11.598;2023-03-14T02:51:49;710.97;;;566.50;;
10890;SDS011;5498;50.928;11.598;2023-03-14T02:54:51;710.47;;;560.80;;
10890;SDS011;5498;50.928;11.598;2023-03-14T02:57:54;710.60;;;562.17;;
10890;SDS011;5498;50.928;11.598;2023-03-14T03:00:56;707.10;;;550.10;;
10890;SDS011;5498;50.928;11.598;2023-03-14T03:03:58;712.57;;;559.93;;
10890;SDS011;5498;50.928;11.598;2023-03-14T03:07:00;708.97;;;548.97;;
10890;SDS011;5498;50.928;11.598;2023-03-14T03:10:02;709.43;;;556.73;;
10890;SDS011;5498;50.928;11.598;2023-03-14T03:13:05;709.63;;;556.00;;
10890;SDS011;5498;50.928;11.598;2023-03-14T03:16:08;710.07;;;556.47;;
10890;SDS011;5498;50.928;11.598;2023-03-14T03:19:10;709.90;;;553.47;;
10890;SDS011;5498;50.928;11.598;2023-03-14T03:22:13;705.30;;;543.80;;
10890;SDS011;5498;50.928;11.598;2023-03-14T03:25:15;704.77;;;538.67;;
10890;SDS011;5498;50.928;11.598;2023-03-14T03:28:19;711.97;;;552.17;;
10890;SDS011;5498;50.928;11.598;2023-03-14T03:31:21;709.97;;;549.07;;
10890;SDS011;5498;50.928;11.598;2023-03-14T03:34:23;710.97;;;545.47;;
10890;SDS011;5498;50.928;11.598;2023-03-14T03:37:25;704.50;;;521.43;;
10890;SDS011;5498;50.928;11.598;2023-03-14T03:40:27;710.23;;;534.80;;
10890;SDS011;5498;50.928;11.598;2023-03-14T03:43:30;709.30;;;538.40;;
10890;SDS011;5498;50.928;11.598;2023-03-14T03:46:32;707.37;;;530.13;;
10890;SDS011;5498;50.928;11.598;2023-03-14T03:49:34;708.67;;;535.97;;
10890;SDS011;5498;50.928;11.598;2023-03-14T03:52:35;715.90;;;546.07;;
10890;SDS011;5498;50.928;11.598;2023-03-14T03:55:39;703.13;;;525.23;;
10890;SDS011;5498;50.928;11.598;2023-03-14T03:58:43;713.37;;;549.97;;
10890;SDS011;5498;50.928;11.598;2023-03-14T04:01:45;708.10;;;544.63;;
10890;SDS011;5498;50.928;11.598;2023-03-14T04:04:47;715.70;;;556.87;;
10890;SDS011;5498;50.928;11.598;2023-03-14T04:07:49;715.03;;;560.20;;
10890;SDS011;5498;50.928;11.598;2023-03-14T04:10:53;718.07;;;568.97;;
10890;SDS011;5498;50.928;11.598;2023-03-14T04:13:58;717.40;;;563.87;;
10890;SDS011;5498;50.928;11.598;2023-03-14T04:17:00;714.67;;;558.50;;
10890;SDS011;5498;50.928;11.598;2023-03-14T04:20:02;716.67;;;556.77;;
10890;SDS011;5498;50.928;11.598;2023-03-14T04:23:05;715.43;;;564.97;;
10890;SDS011;5498;50.928;11.598;2023-03-14T04:26:07;714.53;;;566.63;;
10890;SDS011;5498;50.928;11.598;2023-03-14T04:29:10;714.73;;;564.13;;
10890;SDS011;5498;50.928;11.598;2023-03-14T04:32:12;713.63;;;559.73;;
10890;SDS011;5498;50.928;11.598;2023-03-14T04:35:14;717.40;;;568.53;;
10890;SDS011;5498;50.928;11.598;2023-03-14T04:38:15;716.20;;;571.93;;
10890;SDS011;5498;50.928;11.598;2023-03-14T04:41:17;720.63;;;578.37;;
10890;SDS011;5498;50.928;11.598;2023-03-14T04:44:20;723.80;;;582.80;;
10890;SDS011;5498;50.928;11.598;2023-03-14T04:47:22;723.77;;;589.83;;
10890;SDS011;5498;50.928;11.598;2023-03-14T04:50:24;724.33;;;582.80;;
10890;SDS011;5498;50.928;11.598;2023-03-14T04:53:26;725.10;;;590.33;;
10890;SDS011;5498;50.928;11.598;2023-03-14T04:56:28;725.47;;;595.60;;
10890;SDS011;5498;50.928;11.598;2023-03-14T04:59:31;715.73;;;569.80;;
10890;SDS011;5498;50.928;11.598;2023-03-14T05:02:33;714.90;;;558.73;;
10890;SDS011;5498;50.928;11.598;2023-03-14T05:05:35;710.70;;;551.27;;
10890;SDS011;5498;50.928;11.598;2023-03-14T05:08:37;718.03;;;567.47;;
10890;SDS011;5498;50.928;11.598;2023-03-14T05:11:39;719.23;;;561.40;;
10890;SDS011;5498;50.928;11.598;2023-03-14T05:14:42;708.37;;;534.60;;
10890;SDS011;5498;50.928;11.598;2023-03-14T05:17:44;709.03;;;539.60;;
10890;SDS011;5498;50.928;11.598;2023-03-14T05:20:46;712.93;;;542.97;;
10890;SDS011;5498;50.928;11.598;2023-03-14T05:23:51;710.97;;;536.27;;
10890;SDS011;5498;50.928;11.598;2023-03-14T05:26:53;711.43;;;541.27;;
10890;SDS011;5498;50.928;11.598;2023-03-14T05:29:56;708.40;;;538.23;;
10890;SDS011;5498;50.928;11.598;2023-03-14T05:32:58;711.33;;;539.40;;
10890;SDS011;5498;50.928;11.598;2023-03-14T05:36:00;710.03;;;540.90;;
10890;SDS011;5498;50.928;11.598;2023-03-14T05:39:02;711.63;;;545.37;;
10890;SDS011;5498;50.928;11.598;2023-03-14T05:42:04;714.20;;;542.77;;
10890;SDS011;5498;50.928;11.598;2023-03-14T05:45:07;709.07;;;546.43;;
10890;SDS011;5498;50.928;11.598;2023-03-14T05:48:10;711.37;;;539.07;;
10890;SDS011;5498;50.928;11.598;2023-03-14T05:51:12;715.27;;;541.50;;
10890;SDS011;5498;50.928;11.598;2023-03-14T05:54:14;712.17;;;542.23;;
10890;SDS011;5498;50.928;11.598;2023-03-14T05:57:15;708.93;;;540.47;;
10890;SDS011;5498;50.928;11.598;2023-03-14T06:00:19;703.30;;;529.07;;
10890;SDS011;5498;50.928;11.598;2023-03-14T06:03:22;704.10;;;534.43;;
10890;SDS011;5498;50.928;11.598;2023-03-14T06:06:24;704.40;;;530.10;;
10890;SDS011;5498;50.928;11.598;2023-03-14T06:09:26;704.93;;;523.70;;
10890;SDS011;5498;50.928;11.598;2023-03-14T06:12:28;722.27;;;539.07;;
10890;SDS011;5498;50.928;11.598;2023-03-14T06:15:31;702.37;;;527.43;;
10890;SDS011;5498;50.928;11.598;2023-03-14T06:18:33;703.27;;;533.73;;
10890;SDS011;5498;50.928;11.598;2023-03-14T06:21:35;702.33;;;528.40;;
10890;SDS011;5498;50.928;11.598;2023-03-14T06:24:37;704.43;;;528.93;;
10890;SDS011;5498;50.928;11.598;2023-03-14T06:27:39;709.53;;;539.63;;
10890;SDS011;5498;50.928;11.598;2023-03-14T06:30:44;706.23;;;532.67;;
10890;SDS011;5498;50.928;11.598;2023-03-14T06:33:46;703.93;;;529.07;;
10890;SDS011;5498;50.928;11.598;2023-03-14T06:36:48;706.37;;;538.20;;
10890;SDS011;5498;50.928;11.598;2023-03-14T06:39:50;714.10;;;547.07;;
10890;SDS011;5498;50.928;11.598;2023-03-14T06:42:52;712.07;;;541.17;;
10890;SDS011;5498;50.928;11.598;2023-03-14T06:45:55;710.37;;;541.57;;
10890;SDS011;5498;50.928;11.598;2023-03-14T06:48:57;713.93;;;560.73;;
10890;SDS011;5498;50.928;11.598;2023-03-14T06:51:59;716.70;;;566.70;;
10890;SDS011;5498;50.928;11.598;2023-03-14T06:55:00;715.80;;;566.07;;
10890;SDS011;5498;50.928;11.598;2023-03-14T06:58:02;724.77;;;582.37;;
10890;SDS011;5498;50.928;11.598;2023-03-14T07:01:11;720.10;;;571.87;;
10890;SDS011;5498;50.928;11.598;2023-03-14T07:04:22;722.77;;;585.03;;
10890;SDS011;5498;50.928;11.598;2023-03-14T07:07:24;731.47;;;580.80;;
10890;SDS011;5498;50.928;11.598;2023-03-14T07:10:26;729.63;;;599.23;;
10890;SDS011;5498;50.928;11.598;2023-03-14T07:13:28;730.50;;;609.53;;
10890;SDS011;5498;50.928;11.598;2023-03-14T07:16:31;732.40;;;613.10;;
10890;SDS011;5498;50.928;11.598;2023-03-14T07:19:33;732.93;;;620.37;;
10890;SDS011;5498;50.928;11.598;2023-03-14T07:22:34;729.47;;;611.20;;
10890;SDS011;5498;50.928;11.598;2023-03-14T07:25:36;738.97;;;629.20;;
10890;SDS011;5498;50.928;11.598;2023-03-14T07:28:38;737.73;;;627.30;;
10890;SDS011;5498;50.928;11.598;2023-03-14T07:31:42;740.47;;;639.90;;
10890;SDS011;5498;50.928;11.598;2023-03-14T07:34:43;742.27;;;641.07;;
10890;SDS011;5498;50.928;11.598;2023-03-14T07:37:45;739.47;;;642.17;;
10890;SDS011;5498;50.928;11.598;2023-03-14T07:40:47;738.40;;;634.13;;
10890;SDS011;5498;50.928;11.598;2023-03-14T07:43:49;742.13;;;644.43;;
10890;SDS011;5498;50.928;11.598;2023-03-14T07:46:52;738.50;;;633.50;;
10890;SDS011;5498;50.928;11.598;2023-03-14T07:49:54;737.57;;;636.50;;
10890;SDS011;5498;50.928;11.598;2023-03-14T07:52:56;733.03;;;653.10;;
10890;SDS011;5498;50.928;11.598;2023-03-14T07:55:58;738.87;;;639.47;;
10890;SDS011;5498;50.928;11.598;2023-03-14T07:59:00;735.27;;;655.93;;
10890;SDS011;5498;50.928;11.598;2023-03-14T08:02:04;744.60;;;655.50;;
10890;SDS011;5498;50.928;11.598;2023-03-14T08:05:10;742.23;;;652.60;;
10890;SDS011;5498;50.928;11.598;2023-03-14T08:08:12;735.83;;;649.60;;
10890;SDS011;5498;50.928;11.598;2023-03-14T08:11:14;741.03;;;659.50;;
10890;SDS011;5498;50.928;11.598;2023-03-14T08:14:16;738.57;;;652.60;;
10890;SDS011;5498;50.928;11.598;2023-03-14T08:17:19;765.60;;;687.67;;
10890;SDS011;5498;50.928;11.598;2023-03-14T08:20:22;752.23;;;674.43;;
10890;SDS011;5498;50.928;11.598;2023-03-14T08:23:26;756.57;;;675.63;;
10890;SDS011;5498;50.928;11.598;2023-03-14T08:26:28;766.93;;;691.23;;
10890;SDS011;5498;50.928;11.598;2023-03-14T08:29:30;769.80;;;686.90;;
10890;SDS011;5498;50.928;11.598;2023-03-14T08:32:35;763.63;;;684.03;;
10890;SDS011;5498;50.928;11.598;2023-03-14T08:35:37;773.13;;;693.10;;
10890;SDS011;5498;50.928;11.598;2023-03-14T08:38:39;774.23;;;692.57;;
10890;SDS011;5498;50.928;11.598;2023-03-14T08:41:42;778.13;;;694.80;;
10890;SDS011;5498;50.928;11.598;2023-03-14T08:44:44;764.53;;;681.33;;
10890;SDS011;5498;50.928;11.598;2023-03-14T08:47:47;772.17;;;689.10;;
10890;SDS011;5498;50.928;11.598;2023-03-14T08:50:49;771.60;;;689.10;;
10890;SDS011;5498;50.928;11.598;2023-03-14T08:53:51;766.37;;;683.23;;
10890;SDS011;5498;50.928;11.598;2023-03-14T08:56:53;768.97;;;686.67;;
10890;SDS011;5498;50.928;11.598;2023-03-14T08:59:55;787.03;;;705.23;;
10890;SDS011;5498;50.928;11.598;2023-03-14T09:02:58;785.47;;;703.27;;
10890;SDS011;5498;50.928;11.598;2023-03-14T09:06:03;778.40;;;697.53;;
10890;SDS011;5498;50.928;11.598;2023-03-14T09:09:07;775.73;;;696.87;;
10890;SDS011;5498;50.928;11.598;2023-03-14T09:12:09;799.50;;;720.20;;
10890;SDS011;5498;50.928;11.598;2023-03-14T09:15:11;809.83;;;730.67;;
10890;SDS011;5498;50.928;11.598;2023-03-14T09:18:14;789.00;;;707.73;;
10890;SDS011;5498;50.928;11.598;2023-03-14T09:21:16;818.33;;;737.10;;
10890;SDS011;5498;50.928;11.598;2023-03-14T09:24:17;809.20;;;728.30;;
10890;SDS011;5498;50.928;11.598;2023-03-14T09:27:19;815.03;;;734.77;;
10890;SDS011;5498;50.928;11.598;2023-03-14T09:30:21;805.67;;;725.07;;
10890;SDS011;5498;50.928;11.598;2023-03-14T09:33:24;814.13;;;733.33;;
10890;SDS011;5498;50.928;11.598;2023-03-14T09:36:26;801.07;;;722.53;;
10890;SDS011;5498;50.928;11.598;2023-03-14T09:39:28;813.27;;;733.30;;
10890;SDS011;5498;50.928;11.598;2023-03-14T09:42:30;814.87;;;734.90;;
10890;SDS011;5498;50.928;11.598;2023-03-14T09:45:33;810.70;;;730.90;;
10890;SDS011;5498;50.928;11.598;2023-03-14T09:48:39;819.00;;;739.33;;
10890;SDS011;5498;50.928;11.598;2023-03-14T09:51:41;819.67;;;740.00;;
10890;SDS011;5498;50.928;11.598;2023-03-14T09:54:46;829.43;;;748.33;;
10890;SDS011;5498;50.928;11.598;2023-03-14T09:57:53;822.57;;;742.77;;
10890;SDS011;5498;50.928;11.598;2023-03-14T10:00:59;823.67;;;742.27;;
10890;SDS011;5498;50.928;11.598;2023-03-14T10:04:04;820.33;;;741.23;;
10890;SDS011;5498;50.928;11.598;2023-03-14T10:07:14;832.60;;;750.80;;
10890;SDS011;5498;50.928;11.598;2023-03-14T10:10:19;854.97;;;771.27;;
10890;SDS011;5498;50.928;11.598;2023-03-14T10:13:24;844.87;;;761.13;;
10890;SDS011;5498;50.928;11.598;2023-03-14T10:16:29;833.40;;;749.90;;
10890;SDS011;5498;50.928;11.598;2023-03-14T10:19:34;834.63;;;751.00;;
10890;SDS011;5498;50.928;11.598;2023-03-14T10:22:37;818.00;;;736.30;;
10890;SDS011;5498;50.928;11.598;2023-03-14T10:25:40;824.13;;;740.90;;
10890;SDS011;5498;50.928;11.598;2023-03-14T10:28:45;828.77;;;745.03;;
10890;SDS011;5498;50.928;11.598;2023-03-14T10:31:52;824.43;;;740.47;;
10890;SDS011;5498;50.928;11.598;2023-03-14T10:35:05;824.63;;;741.03;;
10890;SDS011;5498;50.928;11.598;2023-03-14T10:38:15;823.77;;;739.57;;
10890;SDS011;5498;50.928;11.598;2023-03-14T10:41:23;824.23;;;740.23;;
10890;SDS011;5498;50.928;11.598;2023-03-14T10:44:33;821.70;;;737.93;;
10890;SDS011;5498;50.928;11.598;2023-03-14T10:47:36;816.73;;;733.13;;
10890;SDS011;5498;50.928;11.598;2023-03-14T10:50:56;803.93;;;721.10;;
10890;SDS011;5498;50.928;11.598;2023-03-14T10:54:09;819.40;;;735.47;;
10890;SDS011;5498;50.928;11.598;2023-03-14T10:57:15;811.37;;;728.43;;
10890;SDS011;5498;50.928;11.598;2023-03-14T11:00:21;802.07;;;719.40;;
10890;SDS011;5498;50.928;11.598;2023-03-14T11:03:24;810.10;;;727.17;;
10890;SDS011;5498;50.928;11.598;2023-03-14T11:06:33;801.30;;;718.63;;
10890;SDS011;5498;50.928;11.598;2023-03-14T11:09:44;802.63;;;720.23;;
10890;SDS011;5498;50.928;11.598;2023-03-14T11:12:55;814.27;;;730.57;;
10890;SDS011;5498;50.928;11.598;2023-03-14T11:16:18;822.53;;;738.70;;
10890;SDS011;5498;50.928;11.598;2023-03-14T11:19:38;813.70;;;729.60;;
10890;SDS011;5498;50.928;11.598;2023-03-14T11:22:57;837.97;;;752.50;;
10890;SDS011;5498;50.928;11.598;2023-03-14T11:26:09;834.33;;;748.97;;
10890;SDS011;5498;50.928;11.598;2023-03-14T11:29:25;849.57;;;763.57;;
10890;SDS011;5498;50.928;11.598;2023-03-14T11:32:38;845.97;;;759.97;;
10890;SDS011;5498;50.928;11.598;2023-03-14T11:35:47;844.40;;;758.20;;
10890;SDS011;5498;50.928;11.598;2023-03-14T11:38:58;849.93;;;763.43;;
10890;SDS011;5498;50.928;11.598;2023-03-14T11:42:00;851.27;;;764.33;;
10890;SDS011;5498;50.928;11.598;2023-03-14T11:45:04;844.57;;;758.10;;
10890;SDS011;5498;50.928;11.598;2023-03-14T11:48:17;848.43;;;762.13;;
10890;SDS011;5498;50.928;11.598;2023-03-14T11:51:30;855.37;;;769.10;;
10890;SDS011;5498;50.928;11.598;2023-03-14T11:54:39;852.53;;;766.97;;
10890;SDS011;5498;50.928;11.598;2023-03-14T11:57:47;861.17;;;774.47;;
10890;SDS011;5498;50.928;11.598;2023-03-14T12:00:53;869.10;;;781.83;;
10890;SDS011;5498;50.928;11.598;2023-03-14T12:03:58;867.77;;;780.47;;
10890;SDS011;5498;50.928;11.598;2023-03-14T12:07:12;865.00;;;778.20;;
10890;SDS011;5498;50.928;11.598;2023-03-14T12:10:21;867.03;;;780.50;;
10890;SDS011;5498;50.928;11.598;2023-03-14T12:13:23;875.03;;;787.90;;
10890;SDS011;5498;50.928;11.598;2023-03-14T12:16:34;872.37;;;785.50;;
10890;SDS011;5498;50.928;11.598;2023-03-14T12:19:39;881.53;;;793.80;;
10890;SDS011;5498;50.928;11.598;2023-03-14T12:22:42;884.80;;;796.90;;
10890;SDS011;5498;50.928;11.598;2023-03-14T12:29:16;874.33;;;787.43;;
10890;SDS011;5498;50.928;11.598;2023-03-14T12:32:53;879.57;;;791.87;;
10890;SDS011;5498;50.928;11.598;2023-03-14T12:36:48;859.97;;;773.87;;
10890;SDS011;5498;50.928;11.598;2023-03-14T12:40:04;868.30;;;781.33;;
10890;SDS011;5498;50.928;11.598;2023-03-14T12:43:25;873.33;;;786.13;;
10890;SDS011;5498;50.928;11.598;2023-03-14T12:46:30;873.47;;;786.63;;
10890;SDS011;5498;50.928;11.598;2023-03-14T12:49:32;870.67;;;784.10;;
10890;SDS011;5498;50.928;11.598;2023-03-14T12:52:40;869.03;;;781.90;;
10890;SDS011;5498;50.928;11.598;2023-03-14T12:55:54;875.63;;;788.57;;
10890;SDS011;5498;50.928;11.598;2023-03-14T12:59:17;880.90;;;793.90;;
10890;SDS011;5498;50.928;11.598;2023-03-14T13:02:36;886.43;;;799.00;;
10890;SDS011;5498;50.928;11.598;2023-03-14T13:05:51;880.73;;;793.47;;
10890;SDS011;5498;50.928;11.598;2023-03-14T13:08:54;882.50;;;795.07;;
10890;SDS011;5498;50.928;11.598;2023-03-14T13:12:00;890.70;;;802.73;;
10890;SDS011;5498;50.928;11.598;2023-03-14T13:15:12;890.43;;;802.03;;
10890;SDS011;5498;50.928;11.598;2023-03-14T13:18:23;879.10;;;791.63;;
10890;SDS011;5498;50.928;11.598;2023-03-14T13:21:34;894.10;;;806.53;;
10890;SDS011;5498;50.928;11.598;2023-03-14T13:24:36;881.87;;;794.40;;
10890;SDS011;5498;50.928;11.598;2023-03-14T13:27:38;889.43;;;801.27;;
10890;SDS011;5498;50.928;11.598;2023-03-14T13:30:45;887.37;;;799.50;;
10890;SDS011;5498;50.928;11.598;2023-03-14T13:33:55;895.77;;;807.77;;
10890;SDS011;5498;50.928;11.598;2023-03-14T13:37:01;871.33;;;784.20;;
10890;SDS011;5498;50.928;11.598;2023-03-14T13:40:03;880.60;;;793.30;;
10890;SDS011;5498;50.928;11.598;2023-03-14T13:43:18;863.57;;;775.97;;
10890;SDS011;5498;50.928;11.598;2023-03-14T13:46:26;881.93;;;793.93;;
10890;SDS011;5498;50.928;11.598;2023-03-14T13:49:28;871.60;;;784.43;;
10890;SDS011;5498;50.928;11.598;2023-03-14T13:52:36;873.03;;;785.93;;
10890;SDS011;5498;50.928;11.598;2023-03-14T13:55:39;862.63;;;776.13;;
10890;SDS011;5498;50.928;11.598;2023-03-14T13:58:41;875.40;;;788.53;;
10890;SDS011;5498;50.928;11.598;2023-03-14T14:01:44;868.07;;;781.67;;
10890;SDS011;5498;50.928;11.598;2023-03-14T14:04:48;855.50;;;769.43;;
10890;SDS011;5498;50.928;11.598;2023-03-14T14:07:50;854.30;;;767.83;;
10890;SDS011;5498;50.928;11.598;2023-03-14T14:10:53;856.90;;;771.07;;
10890;SDS011;5498;50.928;11.598;2023-03-14T14:14:00;851.43;;;766.10;;
10890;SDS011;5498;50.928;11.598;2023-03-14T14:17:05;835.87;;;751.00;;
10890;SDS011;5498;50.928;11.598;2023-03-14T14:20:13;802.03;;;719.23;;
10890;SDS011;5498;50.928;11.598;2023-03-14T14:23:22;815.57;;;732.43;;
10890;SDS011;5498;50.928;11.598;2023-03-14T14:26:28;818.17;;;734.43;;
10890;SDS011;5498;50.928;11.598;2023-03-14T14:29:31;806.10;;;724.10;;
10890;SDS011;5498;50.928;11.598;2023-03-14T14:32:36;801.83;;;719.93;;
10890;SDS011;5498;50.928;11.598;2023-03-14T14:35:40;784.97;;;705.17;;
10890;SDS011;5498;50.928;11.598;2023-03-14T14:38:42;794.40;;;713.73;;
10890;SDS011;5498;50.928;11.598;2023-03-14T14:41:52;766.10;;;687.23;;
10890;SDS011;5498;50.928;11.598;2023-03-14T14:44:55;774.33;;;695.53;;
10890;SDS011;5498;50.928;11.598;2023-03-14T14:48:03;769.57;;;692.43;;
10890;SDS011;5498;50.928;11.598;2023-03-14T14:51:10;763.13;;;685.57;;
10890;SDS011;5498;50.928;11.598;2023-03-14T14:54:14;723.53;;;647.87;;
10890;SDS011;5498;50.928;11.598;2023-03-14T14:57:18;728.53;;;652.50;;
10890;SDS011;5498;50.928;11.598;2023-03-14T15:00:24;719.53;;;644.03;;
10890;SDS011;5498;50.928;11.598;2023-03-14T15:03:30;699.63;;;626.20;;
10890;SDS011;5498;50.928;11.598;2023-03-14T15:06:34;682.93;;;609.13;;
10890;SDS011;5498;50.928;11.598;2023-03-14T15:09:37;668.63;;;593.93;;
10890;SDS011;5498;50.928;11.598;2023-03-14T15:12:43;676.70;;;589.80;;
10890;SDS011;5498;50.928;11.598;2023-03-14T15:15:45;662.10;;;589.37;;
10890;SDS011;5498;50.928;11.598;2023-03-14T15:18:50;658.37;;;586.73;;
10890;SDS011;5498;50.928;11.598;2023-03-14T15:21:56;676.67;;;561.87;;
10890;SDS011;5498;50.928;11.598;2023-03-14T15:24:57;673.80;;;561.73;;
10890;SDS011;5498;50.928;11.598;2023-03-14T15:27:59;675.70;;;553.97;;
10890;SDS011;5498;50.928;11.598;2023-03-14T15:31:01;674.67;;;543.70;;
10890;SDS011;5498;50.928;11.598;2023-03-14T15:34:04;631.77;;;529.00;;
10890;SDS011;5498;50.928;11.598;2023-03-14T15:37:08;687.53;;;517.67;;
10890;SDS011;5498;50.928;11.598;2023-03-14T15:40:13;661.77;;;492.53;;
10890;SDS011;5498;50.928;11.598;2023-03-14T15:43:16;660.73;;;500.90;;
10890;SDS011;5498;50.928;11.598;2023-03-14T15:46:18;646.23;;;475.37;;
10890;SDS011;5498;50.928;11.598;2023-03-14T15:49:22;644.23;;;467.17;;
10890;SDS011;5498;50.928;11.598;2023-03-14T15:52:24;640.80;;;445.63;;
10890;SDS011;5498;50.928;11.598;2023-03-14T15:55:26;616.03;;;444.33;;
10890;SDS011;5498;50.928;11.598;2023-03-14T15:58:28;619.40;;;438.67;;
10890;SDS011;5498;50.928;11.598;2023-03-14T16:01:33;624.27;;;426.60;;
10890;SDS011;5498;50.928;11.598;2023-03-14T16:04:36;643.73;;;416.87;;
10890;SDS011;5498;50.928;11.598;2023-03-14T16:07:38;658.70;;;414.83;;
10890;SDS011;5498;50.928;11.598;2023-03-14T16:10:40;655.80;;;405.67;;
10890;SDS011;5498;50.928;11.598;2023-03-14T16:13:44;649.87;;;393.00;;
10890;SDS011;5498;50.928;11.598;2023-03-14T16:16:45;657.93;;;389.47;;
10890;SDS011;5498;50.928;11.598;2023-03-14T16:19:49;652.03;;;380.73;;
10890;SDS011;5498;50.928;11.598;2023-03-14T16:22:50;666.90;;;369.97;;
10890;SDS011;5498;50.928;11.598;2023-03-14T16:25:54;665.30;;;359.07;;
10890;SDS011;5498;50.928;11.598;2023-03-14T16:28:56;667.73;;;356.57;;
10890;SDS011;5498;50.928;11.598;2023-03-14T16:31:58;668.17;;;363.03;;
10890;SDS011;5498;50.928;11.598;2023-03-14T16:35:01;667.90;;;357.47;;
10890;SDS011;5498;50.928;11.598;2023-03-14T16:38:03;658.87;;;344.07;;
10890;SDS011;5498;50.928;11.598;2023-03-14T16:41:06;660.77;;;348.73;;
10890;SDS011;5498;50.928;11.598;2023-03-14T16:44:11;653.50;;;322.60;;
10890;SDS011;5498;50.928;11.598;2023-03-14T16:47:13;655.50;;;334.43;;
10890;SDS011;5498;50.928;11.598;2023-03-14T16:50:16;653.00;;;321.20;;
10890;SDS011;5498;50.928;11.598;2023-03-14T16:53:18;657.00;;;332.03;;
10890;SDS011;5498;50.928;11.598;2023-03-14T16:56:20;652.77;;;329.33;;
10890;SDS011;5498;50.928;11.598;2023-03-14T16:59:23;652.90;;;326.87;;
10890;SDS011;5498;50.928;11.598;2023-03-14T17:02:27;650.80;;;317.90;;
10890;SDS011;5498;50.928;11.598;2023-03-14T17:05:31;649.07;;;312.87;;
10890;SDS011;5498;50.928;11.598;2023-03-14T17:08:33;647.60;;;317.70;;
10890;SDS011;5498;50.928;11.598;2023-03-14T17:11:35;646.57;;;303.50;;
10890;SDS011;5498;50.928;11.598;2023-03-14T17:14:37;652.23;;;322.77;;
10890;SDS011;5498;50.928;11.598;2023-03-14T17:17:39;648.97;;;314.17;;
10890;SDS011;5498;50.928;11.598;2023-03-14T17:20:42;651.33;;;314.20;;
10890;SDS011;5498;50.928;11.598;2023-03-14T17:23:44;645.17;;;300.93;;
10890;SDS011;5498;50.928;11.598;2023-03-14T17:26:46;646.20;;;299.60;;
10890;SDS011;5498;50.928;11.598;2023-03-14T17:29:48;645.80;;;297.50;;